sensor_id;sensor_type;location;lat;lon;timestamp;P1;durP1;ratioP1;P2;durP2;ratioP2
78209;SDS011;67485;48.816;9.930;2023-11-18T00:00:47;3.90;;;2.30;;
78209;SDS011;67485;48.816;9.930;2023-11-18T00:03:13;3.30;;;2.05;;
78209;SDS011;67485;48.816;9.930;2023-11-18T00:05:38;3.03;;;1.90;;
78209;SDS011;67485;48.816;9.930;2023-11-18T00:08:04;3.72;;;2.17;;
78209;SDS011;67485;48.816;9.930;2023-11-18T00:10:30;3.37;;;2.17;;
78209;SDS011;67485;48.816;9.930;2023-11-18T00:12:55;3.17;;;2.33;;
78209;SDS011;67485;48.816;9.930;2023-11-18T00:15:21;3.70;;;1.92;;
78209;SDS011;67485;48.816;9.930;2023-11-18T00:17:46;3.77;;;2.70;;
78209;SDS011;67485;48.816;9.930;2023-11-18T00:20:12;3.13;;;2.13;;
78209;SDS011;67485;48.816;9.930;2023-11-18T00:22:39;3.53;;;1.87;;
78209;SDS011;67485;48.816;9.930;2023-11-18T00:25:06;2.92;;;1.90;;
78209;SDS011;67485;48.816;9.930;2023-11-18T00:27:36;3.60;;;2.03;;
78209;SDS011;67485;48.816;9.930;2023-11-18T00:30:02;3.92;;;2.55;;
78209;SDS011;67485;48.816;9.930;2023-11-18T00:32:33;3.50;;;2.20;;
78209;SDS011;67485;48.816;9.930;2023-11-18T00:35:00;3.88;;;2.40;;
78209;SDS011;67485;48.816;9.930;2023-11-18T00:37:26;6.78;;;2.60;;
78209;SDS011;67485;48.816;9.930;2023-11-18T00:39:52;5.75;;;2.33;;
78209;SDS011;67485;48.816;9.930;2023-11-18T00:42:18;4.60;;;2.53;;
78209;SDS011;67485;48.816;9.930;2023-11-18T00:44:43;6.38;;;2.67;;
78209;SDS011;67485;48.816;9.930;2023-11-18T00:47:09;3.67;;;2.60;;
78209;SDS011;67485;48.816;9.930;2023-11-18T00:49:35;4.80;;;2.55;;
78209;SDS011;67485;48.816;9.930;2023-11-18T00:52:01;3.53;;;2.33;;
78209;SDS011;67485;48.816;9.930;2023-11-18T00:54:28;4.18;;;2.35;;
78209;SDS011;67485;48.816;9.930;2023-11-18T00:56:53;3.75;;;2.45;;
78209;SDS011;67485;48.816;9.930;2023-11-18T00:59:19;3.53;;;2.43;;
78209;SDS011;67485;48.816;9.930;2023-11-18T01:01:45;4.05;;;2.42;;
78209;SDS011;67485;48.816;9.930;2023-11-18T01:04:11;4.77;;;2.77;;
78209;SDS011;67485;48.816;9.930;2023-11-18T01:06:36;3.75;;;2.80;;
78209;SDS011;67485;48.816;9.930;2023-11-18T01:09:02;4.30;;;2.70;;
78209;SDS011;67485;48.816;9.930;2023-11-18T01:11:29;4.72;;;2.80;;
78209;SDS011;67485;48.816;9.930;2023-11-18T01:13:54;4.43;;;2.38;;
78209;SDS011;67485;48.816;9.930;2023-11-18T01:16:21;4.17;;;2.73;;
78209;SDS011;67485;48.816;9.930;2023-11-18T01:18:47;6.38;;;2.80;;
78209;SDS011;67485;48.816;9.930;2023-11-18T01:21:13;7.28;;;2.83;;
78209;SDS011;67485;48.816;9.930;2023-11-18T01:23:39;5.53;;;2.83;;
78209;SDS011;67485;48.816;9.930;2023-11-18T01:26:08;4.03;;;2.70;;
78209;SDS011;67485;48.816;9.930;2023-11-18T01:28:34;4.82;;;2.80;;
78209;SDS011;67485;48.816;9.930;2023-11-18T01:31:06;4.87;;;3.20;;
78209;SDS011;67485;48.816;9.930;2023-11-18T01:33:38;5.38;;;2.85;;
78209;SDS011;67485;48.816;9.930;2023-11-18T01:36:06;4.50;;;3.10;;
78209;SDS011;67485;48.816;9.930;2023-11-18T01:38:36;4.30;;;3.10;;
78209;SDS011;67485;48.816;9.930;2023-11-18T01:41:05;4.97;;;2.97;;
78209;SDS011;67485;48.816;9.930;2023-11-18T01:43:32;4.60;;;2.97;;
78209;SDS011;67485;48.816;9.930;2023-11-18T01:46:02;4.10;;;2.95;;
78209;SDS011;67485;48.816;9.930;2023-11-18T01:48:33;4.38;;;2.75;;
78209;SDS011;67485;48.816;9.930;2023-11-18T01:51:00;6.60;;;3.22;;
78209;SDS011;67485;48.816;9.930;2023-11-18T01:53:29;6.38;;;3.08;;
78209;SDS011;67485;48.816;9.930;2023-11-18T01:55:54;5.57;;;3.10;;
78209;SDS011;67485;48.816;9.930;2023-11-18T01:58:20;5.37;;;3.20;;
78209;SDS011;67485;48.816;9.930;2023-11-18T02:00:48;5.68;;;3.00;;
78209;SDS011;67485;48.816;9.930;2023-11-18T02:03:16;5.30;;;3.30;;
78209;SDS011;67485;48.816;9.930;2023-11-18T02:05:43;5.18;;;3.10;;
78209;SDS011;67485;48.816;9.930;2023-11-18T02:08:09;4.67;;;3.37;;
78209;SDS011;67485;48.816;9.930;2023-11-18T02:13:21;6.22;;;3.13;;
78209;SDS011;67485;48.816;9.930;2023-11-18T02:15:55;4.70;;;3.35;;
78209;SDS011;67485;48.816;9.930;2023-11-18T02:18:25;4.50;;;2.73;;
78209;SDS011;67485;48.816;9.930;2023-11-18T02:20:57;5.38;;;3.05;;
78209;SDS011;67485;48.816;9.930;2023-11-18T02:23:24;4.68;;;3.30;;
78209;SDS011;67485;48.816;9.930;2023-11-18T02:25:53;4.50;;;2.95;;
78209;SDS011;67485;48.816;9.930;2023-11-18T02:28:22;5.25;;;3.00;;
78209;SDS011;67485;48.816;9.930;2023-11-18T02:30:50;5.87;;;3.10;;
78209;SDS011;67485;48.816;9.930;2023-11-18T02:33:23;4.35;;;3.17;;
78209;SDS011;67485;48.816;9.930;2023-11-18T02:35:59;5.72;;;3.00;;
78209;SDS011;67485;48.816;9.930;2023-11-18T02:38:43;6.75;;;3.47;;
78209;SDS011;67485;48.816;9.930;2023-11-18T02:41:15;4.38;;;3.10;;
78209;SDS011;67485;48.816;9.930;2023-11-18T02:43:45;4.10;;;2.90;;
78209;SDS011;67485;48.816;9.930;2023-11-18T02:46:12;4.03;;;2.70;;
78209;SDS011;67485;48.816;9.930;2023-11-18T02:48:39;6.55;;;3.30;;
78209;SDS011;67485;48.816;9.930;2023-11-18T02:51:06;5.43;;;3.08;;
78209;SDS011;67485;48.816;9.930;2023-11-18T02:53:33;4.55;;;2.97;;
78209;SDS011;67485;48.816;9.930;2023-11-18T02:55:59;4.43;;;3.07;;
78209;SDS011;67485;48.816;9.930;2023-11-18T02:58:31;4.88;;;3.00;;
78209;SDS011;67485;48.816;9.930;2023-11-18T03:00:58;4.22;;;2.78;;
78209;SDS011;67485;48.816;9.930;2023-11-18T03:03:25;4.13;;;2.90;;
78209;SDS011;67485;48.816;9.930;2023-11-18T03:05:51;5.05;;;2.85;;
78209;SDS011;67485;48.816;9.930;2023-11-18T03:08:16;4.60;;;2.90;;
78209;SDS011;67485;48.816;9.930;2023-11-18T03:10:42;5.93;;;3.07;;
78209;SDS011;67485;48.816;9.930;2023-11-18T03:13:09;5.63;;;2.95;;
78209;SDS011;67485;48.816;9.930;2023-11-18T03:15:35;4.78;;;2.78;;
78209;SDS011;67485;48.816;9.930;2023-11-18T03:18:01;6.43;;;3.70;;
78209;SDS011;67485;48.816;9.930;2023-11-18T03:20:27;6.72;;;3.70;;
78209;SDS011;67485;48.816;9.930;2023-11-18T03:22:54;6.13;;;3.40;;
78209;SDS011;67485;48.816;9.930;2023-11-18T03:25:20;3.53;;;2.50;;
78209;SDS011;67485;48.816;9.930;2023-11-18T03:27:47;4.22;;;2.83;;
78209;SDS011;67485;48.816;9.930;2023-11-18T03:30:13;4.05;;;2.60;;
78209;SDS011;67485;48.816;9.930;2023-11-18T03:32:39;4.57;;;2.83;;
78209;SDS011;67485;48.816;9.930;2023-11-18T03:35:06;4.23;;;2.67;;
78209;SDS011;67485;48.816;9.930;2023-11-18T03:37:37;4.03;;;2.83;;
78209;SDS011;67485;48.816;9.930;2023-11-18T03:40:10;3.72;;;2.47;;
78209;SDS011;67485;48.816;9.930;2023-11-18T03:43:02;3.85;;;2.42;;
78209;SDS011;67485;48.816;9.930;2023-11-18T03:45:29;4.50;;;2.92;;
78209;SDS011;67485;48.816;9.930;2023-11-18T03:47:55;4.37;;;2.50;;
78209;SDS011;67485;48.816;9.930;2023-11-18T03:50:21;4.78;;;2.63;;
78209;SDS011;67485;48.816;9.930;2023-11-18T03:52:48;4.00;;;2.50;;
78209;SDS011;67485;48.816;9.930;2023-11-18T03:55:13;4.40;;;2.60;;
78209;SDS011;67485;48.816;9.930;2023-11-18T03:57:39;4.00;;;2.63;;
78209;SDS011;67485;48.816;9.930;2023-11-18T04:00:05;4.07;;;2.73;;
78209;SDS011;67485;48.816;9.930;2023-11-18T04:02:39;5.45;;;2.83;;
78209;SDS011;67485;48.816;9.930;2023-11-18T04:05:05;5.63;;;2.83;;
78209;SDS011;67485;48.816;9.930;2023-11-18T04:07:31;4.07;;;2.78;;
78209;SDS011;67485;48.816;9.930;2023-11-18T04:09:57;4.30;;;2.53;;
78209;SDS011;67485;48.816;9.930;2023-11-18T04:12:22;4.55;;;2.78;;
78209;SDS011;67485;48.816;9.930;2023-11-18T04:14:49;4.37;;;2.43;;
78209;SDS011;67485;48.816;9.930;2023-11-18T04:17:14;4.03;;;2.40;;
78209;SDS011;67485;48.816;9.930;2023-11-18T04:19:40;4.73;;;2.70;;
78209;SDS011;67485;48.816;9.930;2023-11-18T04:22:06;3.53;;;2.28;;
78209;SDS011;67485;48.816;9.930;2023-11-18T04:24:32;5.10;;;2.30;;
78209;SDS011;67485;48.816;9.930;2023-11-18T04:26:58;3.50;;;2.20;;
78209;SDS011;67485;48.816;9.930;2023-11-18T04:29:23;4.17;;;2.50;;
78209;SDS011;67485;48.816;9.930;2023-11-18T04:31:49;3.88;;;2.28;;
78209;SDS011;67485;48.816;9.930;2023-11-18T04:34:14;4.23;;;2.77;;
78209;SDS011;67485;48.816;9.930;2023-11-18T04:36:42;4.15;;;2.72;;
78209;SDS011;67485;48.816;9.930;2023-11-18T04:39:07;4.60;;;2.30;;
78209;SDS011;67485;48.816;9.930;2023-11-18T04:41:33;6.63;;;2.28;;
78209;SDS011;67485;48.816;9.930;2023-11-18T04:43:58;3.47;;;2.07;;
78209;SDS011;67485;48.816;9.930;2023-11-18T04:46:24;4.03;;;2.40;;
78209;SDS011;67485;48.816;9.930;2023-11-18T04:48:50;4.73;;;2.60;;
78209;SDS011;67485;48.816;9.930;2023-11-18T04:51:15;4.07;;;2.63;;
78209;SDS011;67485;48.816;9.930;2023-11-18T04:53:42;4.50;;;2.67;;
78209;SDS011;67485;48.816;9.930;2023-11-18T04:56:09;4.80;;;2.90;;
78209;SDS011;67485;48.816;9.930;2023-11-18T04:58:37;6.60;;;2.70;;
78209;SDS011;67485;48.816;9.930;2023-11-18T05:01:04;4.10;;;2.90;;
78209;SDS011;67485;48.816;9.930;2023-11-18T05:03:30;4.23;;;3.00;;
78209;SDS011;67485;48.816;9.930;2023-11-18T05:05:55;3.85;;;2.80;;
78209;SDS011;67485;48.816;9.930;2023-11-18T05:08:21;7.93;;;2.80;;
78209;SDS011;67485;48.816;9.930;2023-11-18T05:10:47;4.35;;;2.63;;
78209;SDS011;67485;48.816;9.930;2023-11-18T05:13:14;5.22;;;2.25;;
78209;SDS011;67485;48.816;9.930;2023-11-18T05:15:45;6.00;;;2.20;;
78209;SDS011;67485;48.816;9.930;2023-11-18T05:18:14;3.67;;;2.37;;
78209;SDS011;67485;48.816;9.930;2023-11-18T05:20:43;4.10;;;2.30;;
78209;SDS011;67485;48.816;9.930;2023-11-18T05:23:09;4.57;;;2.08;;
78209;SDS011;67485;48.816;9.930;2023-11-18T05:25:36;2.97;;;1.98;;
78209;SDS011;67485;48.816;9.930;2023-11-18T05:28:02;3.75;;;2.47;;
78209;SDS011;67485;48.816;9.930;2023-11-18T05:30:30;3.73;;;2.50;;
78209;SDS011;67485;48.816;9.930;2023-11-18T05:32:56;4.10;;;2.60;;
78209;SDS011;67485;48.816;9.930;2023-11-18T05:35:23;3.88;;;2.40;;
78209;SDS011;67485;48.816;9.930;2023-11-18T05:37:54;3.80;;;2.55;;
78209;SDS011;67485;48.816;9.930;2023-11-18T05:40:20;4.63;;;2.58;;
78209;SDS011;67485;48.816;9.930;2023-11-18T05:42:45;4.33;;;2.77;;
78209;SDS011;67485;48.816;9.930;2023-11-18T05:45:13;4.47;;;2.70;;
78209;SDS011;67485;48.816;9.930;2023-11-18T05:47:56;3.70;;;2.55;;
78209;SDS011;67485;48.816;9.930;2023-11-18T05:50:22;5.15;;;2.90;;
78209;SDS011;67485;48.816;9.930;2023-11-18T05:52:50;4.15;;;2.70;;
78209;SDS011;67485;48.816;9.930;2023-11-18T05:55:16;5.13;;;2.88;;
78209;SDS011;67485;48.816;9.930;2023-11-18T05:57:42;5.10;;;3.13;;
78209;SDS011;67485;48.816;9.930;2023-11-18T06:00:11;4.47;;;2.50;;
78209;SDS011;67485;48.816;9.930;2023-11-18T06:02:41;4.28;;;2.90;;
78209;SDS011;67485;48.816;9.930;2023-11-18T06:05:07;4.15;;;2.80;;
78209;SDS011;67485;48.816;9.930;2023-11-18T06:07:33;4.47;;;3.10;;
78209;SDS011;67485;48.816;9.930;2023-11-18T06:10:00;4.75;;;2.80;;
78209;SDS011;67485;48.816;9.930;2023-11-18T06:12:27;4.83;;;3.13;;
78209;SDS011;67485;48.816;9.930;2023-11-18T06:14:52;4.78;;;3.30;;
78209;SDS011;67485;48.816;9.930;2023-11-18T06:17:18;5.57;;;3.20;;
78209;SDS011;67485;48.816;9.930;2023-11-18T06:19:44;4.60;;;3.10;;
78209;SDS011;67485;48.816;9.930;2023-11-18T06:22:10;5.43;;;3.50;;
78209;SDS011;67485;48.816;9.930;2023-11-18T06:24:36;5.07;;;3.08;;
78209;SDS011;67485;48.816;9.930;2023-11-18T06:27:04;4.78;;;3.13;;
78209;SDS011;67485;48.816;9.930;2023-11-18T06:29:32;4.97;;;3.15;;
78209;SDS011;67485;48.816;9.930;2023-11-18T06:31:58;5.40;;;3.50;;
78209;SDS011;67485;48.816;9.930;2023-11-18T06:34:23;5.60;;;3.30;;
78209;SDS011;67485;48.816;9.930;2023-11-18T06:36:49;6.45;;;3.60;;
78209;SDS011;67485;48.816;9.930;2023-11-18T06:39:16;5.00;;;3.40;;
78209;SDS011;67485;48.816;9.930;2023-11-18T06:41:41;5.37;;;3.40;;
78209;SDS011;67485;48.816;9.930;2023-11-18T06:44:14;4.25;;;3.15;;
78209;SDS011;67485;48.816;9.930;2023-11-18T06:46:43;4.93;;;3.30;;
78209;SDS011;67485;48.816;9.930;2023-11-18T06:49:09;6.10;;;3.45;;
78209;SDS011;67485;48.816;9.930;2023-11-18T06:51:40;4.77;;;3.30;;
78209;SDS011;67485;48.816;9.930;2023-11-18T06:54:07;5.18;;;3.50;;
78209;SDS011;67485;48.816;9.930;2023-11-18T06:56:36;4.30;;;3.00;;
78209;SDS011;67485;48.816;9.930;2023-11-18T06:59:06;4.70;;;3.10;;
78209;SDS011;67485;48.816;9.930;2023-11-18T07:01:37;4.47;;;3.33;;
78209;SDS011;67485;48.816;9.930;2023-11-18T07:04:07;5.30;;;3.30;;
78209;SDS011;67485;48.816;9.930;2023-11-18T07:06:36;8.40;;;3.40;;
78209;SDS011;67485;48.816;9.930;2023-11-18T07:09:07;8.13;;;4.68;;
78209;SDS011;67485;48.816;9.930;2023-11-18T07:11:43;7.45;;;5.10;;
78209;SDS011;67485;48.816;9.930;2023-11-18T07:14:09;7.10;;;4.63;;
78209;SDS011;67485;48.816;9.930;2023-11-18T07:16:37;7.80;;;4.80;;
78209;SDS011;67485;48.816;9.930;2023-11-18T07:19:04;6.57;;;5.07;;
78209;SDS011;67485;48.816;9.930;2023-11-18T07:21:29;9.30;;;4.70;;
78209;SDS011;67485;48.816;9.930;2023-11-18T07:23:55;6.27;;;4.40;;
78209;SDS011;67485;48.816;9.930;2023-11-18T07:26:22;5.93;;;3.90;;
78209;SDS011;67485;48.816;9.930;2023-11-18T07:28:49;6.40;;;3.85;;
78209;SDS011;67485;48.816;9.930;2023-11-18T07:31:15;6.90;;;3.17;;
78209;SDS011;67485;48.816;9.930;2023-11-18T07:33:46;4.20;;;3.00;;
78209;SDS011;67485;48.816;9.930;2023-11-18T07:36:18;4.97;;;3.30;;
78209;SDS011;67485;48.816;9.930;2023-11-18T07:38:46;4.35;;;3.00;;
78209;SDS011;67485;48.816;9.930;2023-11-18T07:41:13;4.68;;;3.28;;
78209;SDS011;67485;48.816;9.930;2023-11-18T07:43:51;5.43;;;3.30;;
78209;SDS011;67485;48.816;9.930;2023-11-18T07:46:23;6.27;;;3.23;;
78209;SDS011;67485;48.816;9.930;2023-11-18T07:48:50;4.47;;;3.15;;
78209;SDS011;67485;48.816;9.930;2023-11-18T07:51:19;4.47;;;3.42;;
78209;SDS011;67485;48.816;9.930;2023-11-18T07:53:49;6.25;;;3.40;;
78209;SDS011;67485;48.816;9.930;2023-11-18T07:56:15;3.88;;;2.90;;
78209;SDS011;67485;48.816;9.930;2023-11-18T07:58:44;4.10;;;2.80;;
78209;SDS011;67485;48.816;9.930;2023-11-18T08:01:14;3.88;;;2.83;;
78209;SDS011;67485;48.816;9.930;2023-11-18T08:03:41;5.05;;;2.75;;
78209;SDS011;67485;48.816;9.930;2023-11-18T08:06:07;5.55;;;3.55;;
78209;SDS011;67485;48.816;9.930;2023-11-18T08:08:34;6.20;;;4.10;;
78209;SDS011;67485;48.816;9.930;2023-11-18T08:11:01;5.97;;;4.10;;
78209;SDS011;67485;48.816;9.930;2023-11-18T08:13:27;10.03;;;4.67;;
78209;SDS011;67485;48.816;9.930;2023-11-18T08:15:52;4.40;;;3.30;;
78209;SDS011;67485;48.816;9.930;2023-11-18T08:18:18;4.33;;;2.77;;
78209;SDS011;67485;48.816;9.930;2023-11-18T08:20:46;4.57;;;3.00;;
78209;SDS011;67485;48.816;9.930;2023-11-18T08:23:12;4.60;;;3.05;;
78209;SDS011;67485;48.816;9.930;2023-11-18T08:25:39;4.30;;;2.92;;
78209;SDS011;67485;48.816;9.930;2023-11-18T08:28:05;7.60;;;3.10;;
78209;SDS011;67485;48.816;9.930;2023-11-18T08:30:32;4.03;;;3.00;;
78209;SDS011;67485;48.816;9.930;2023-11-18T08:32:59;4.35;;;3.08;;
78209;SDS011;67485;48.816;9.930;2023-11-18T08:35:25;5.10;;;3.10;;
78209;SDS011;67485;48.816;9.930;2023-11-18T08:37:51;5.17;;;3.57;;
78209;SDS011;67485;48.816;9.930;2023-11-18T08:40:17;4.32;;;3.10;;
78209;SDS011;67485;48.816;9.930;2023-11-18T08:45:18;4.30;;;2.85;;
78209;SDS011;67485;48.816;9.930;2023-11-18T08:47:47;5.13;;;3.35;;
78209;SDS011;67485;48.816;9.930;2023-11-18T08:50:16;5.70;;;3.17;;
78209;SDS011;67485;48.816;9.930;2023-11-18T08:52:45;3.60;;;2.60;;
78209;SDS011;67485;48.816;9.930;2023-11-18T08:55:14;4.45;;;2.55;;
78209;SDS011;67485;48.816;9.930;2023-11-18T08:57:45;5.25;;;2.88;;
78209;SDS011;67485;48.816;9.930;2023-11-18T09:00:30;10.35;;;5.32;;
78209;SDS011;67485;48.816;9.930;2023-11-18T09:03:16;14.23;;;7.50;;
78209;SDS011;67485;48.816;9.930;2023-11-18T09:05:55;18.35;;;9.13;;
78209;SDS011;67485;48.816;9.930;2023-11-18T09:08:23;11.88;;;7.07;;
78209;SDS011;67485;48.816;9.930;2023-11-18T09:10:53;11.85;;;6.38;;
78209;SDS011;67485;48.816;9.930;2023-11-18T09:13:20;7.88;;;5.25;;
78209;SDS011;67485;48.816;9.930;2023-11-18T09:15:48;10.97;;;6.07;;
78209;SDS011;67485;48.816;9.930;2023-11-18T09:18:15;8.85;;;5.90;;
78209;SDS011;67485;48.816;9.930;2023-11-18T09:20:43;8.88;;;5.60;;
78209;SDS011;67485;48.816;9.930;2023-11-18T09:23:09;6.93;;;4.53;;
78209;SDS011;67485;48.816;9.930;2023-11-18T09:25:34;6.30;;;4.37;;
78209;SDS011;67485;48.816;9.930;2023-11-18T09:28:01;7.82;;;4.45;;
78209;SDS011;67485;48.816;9.930;2023-11-18T09:30:28;5.75;;;3.38;;
78209;SDS011;67485;48.816;9.930;2023-11-18T09:32:54;4.15;;;2.80;;
78209;SDS011;67485;48.816;9.930;2023-11-18T09:35:20;4.03;;;2.40;;
78209;SDS011;67485;48.816;9.930;2023-11-18T09:37:46;3.97;;;2.20;;
78209;SDS011;67485;48.816;9.930;2023-11-18T09:43:08;3.25;;;1.80;;
78209;SDS011;67485;48.816;9.930;2023-11-18T09:45:36;4.07;;;1.55;;
78209;SDS011;67485;48.816;9.930;2023-11-18T09:48:02;3.38;;;1.65;;
78209;SDS011;67485;48.816;9.930;2023-11-18T09:50:32;3.50;;;1.77;;
78209;SDS011;67485;48.816;9.930;2023-11-18T09:52:58;3.17;;;1.55;;
78209;SDS011;67485;48.816;9.930;2023-11-18T09:55:35;2.08;;;1.30;;
78209;SDS011;67485;48.816;9.930;2023-11-18T09:58:09;2.85;;;1.27;;
78209;SDS011;67485;48.816;9.930;2023-11-18T10:00:40;4.93;;;1.40;;
78209;SDS011;67485;48.816;9.930;2023-11-18T10:03:07;3.70;;;1.30;;
78209;SDS011;67485;48.816;9.930;2023-11-18T10:05:35;2.53;;;0.98;;
78209;SDS011;67485;48.816;9.930;2023-11-18T10:08:04;2.05;;;0.88;;
78209;SDS011;67485;48.816;9.930;2023-11-18T10:10:33;3.25;;;1.15;;
78209;SDS011;67485;48.816;9.930;2023-11-18T10:13:02;1.60;;;0.90;;
78209;SDS011;67485;48.816;9.930;2023-11-18T10:15:34;1.50;;;0.77;;
78209;SDS011;67485;48.816;9.930;2023-11-18T10:18:00;3.55;;;1.00;;
78209;SDS011;67485;48.816;9.930;2023-11-18T10:20:48;2.17;;;0.95;;
78209;SDS011;67485;48.816;9.930;2023-11-18T10:23:18;1.80;;;0.80;;
78209;SDS011;67485;48.816;9.930;2023-11-18T10:25:51;1.63;;;0.75;;
78209;SDS011;67485;48.816;9.930;2023-11-18T10:31:03;1.98;;;0.80;;
78209;SDS011;67485;48.816;9.930;2023-11-18T10:33:37;2.67;;;0.88;;
78209;SDS011;67485;48.816;9.930;2023-11-18T10:36:06;2.50;;;0.68;;
78209;SDS011;67485;48.816;9.930;2023-11-18T10:38:49;1.17;;;0.70;;
78209;SDS011;67485;48.816;9.930;2023-11-18T10:41:17;2.23;;;0.70;;
78209;SDS011;67485;48.816;9.930;2023-11-18T10:43:44;1.73;;;0.70;;
78209;SDS011;67485;48.816;9.930;2023-11-18T10:46:11;3.08;;;0.65;;
78209;SDS011;67485;48.816;9.930;2023-11-18T10:51:16;2.08;;;0.80;;
78209;SDS011;67485;48.816;9.930;2023-11-18T10:53:46;3.20;;;0.70;;
78209;SDS011;67485;48.816;9.930;2023-11-18T10:56:23;1.55;;;0.63;;
78209;SDS011;67485;48.816;9.930;2023-11-18T10:58:55;2.90;;;0.70;;
78209;SDS011;67485;48.816;9.930;2023-11-18T11:01:37;2.88;;;0.50;;
78209;SDS011;67485;48.816;9.930;2023-11-18T11:04:10;1.80;;;0.60;;
78209;SDS011;67485;48.816;9.930;2023-11-18T11:06:43;2.07;;;0.70;;
78209;SDS011;67485;48.816;9.930;2023-11-18T11:09:17;1.77;;;0.60;;
78209;SDS011;67485;48.816;9.930;2023-11-18T11:11:55;1.35;;;0.60;;
78209;SDS011;67485;48.816;9.930;2023-11-18T11:14:32;1.60;;;0.60;;
78209;SDS011;67485;48.816;9.930;2023-11-18T11:17:05;2.53;;;0.70;;
78209;SDS011;67485;48.816;9.930;2023-11-18T11:19:50;2.60;;;0.70;;
78209;SDS011;67485;48.816;9.930;2023-11-18T11:22:24;1.58;;;0.52;;
78209;SDS011;67485;48.816;9.930;2023-11-18T11:25:14;2.45;;;0.60;;
78209;SDS011;67485;48.816;9.930;2023-11-18T11:27:54;3.42;;;0.80;;
78209;SDS011;67485;48.816;9.930;2023-11-18T11:30:36;2.55;;;0.75;;
78209;SDS011;67485;48.816;9.930;2023-11-18T11:36:07;1.38;;;0.60;;
78209;SDS011;67485;48.816;9.930;2023-11-18T11:38:37;1.67;;;0.70;;
78209;SDS011;67485;48.816;9.930;2023-11-18T11:41:06;2.47;;;0.70;;
78209;SDS011;67485;48.816;9.930;2023-11-18T11:43:37;1.35;;;0.60;;
78209;SDS011;67485;48.816;9.930;2023-11-18T11:46:05;1.77;;;0.80;;
78209;SDS011;67485;48.816;9.930;2023-11-18T11:48:36;1.85;;;0.65;;
78209;SDS011;67485;48.816;9.930;2023-11-18T11:51:09;2.83;;;0.60;;
78209;SDS011;67485;48.816;9.930;2023-11-18T11:53:42;1.77;;;0.60;;
78209;SDS011;67485;48.816;9.930;2023-11-18T11:56:13;2.38;;;0.88;;
78209;SDS011;67485;48.816;9.930;2023-11-18T11:58:46;1.70;;;0.63;;
78209;SDS011;67485;48.816;9.930;2023-11-18T12:01:21;1.88;;;0.80;;
78209;SDS011;67485;48.816;9.930;2023-11-18T12:03:56;4.53;;;0.93;;
78209;SDS011;67485;48.816;9.930;2023-11-18T12:06:23;2.28;;;0.63;;
78209;SDS011;67485;48.816;9.930;2023-11-18T12:08:53;1.90;;;0.47;;
78209;SDS011;67485;48.816;9.930;2023-11-18T12:11:20;1.27;;;0.50;;
78209;SDS011;67485;48.816;9.930;2023-11-18T12:14:06;2.42;;;0.52;;
78209;SDS011;67485;48.816;9.930;2023-11-18T12:19:35;2.03;;;0.68;;
78209;SDS011;67485;48.816;9.930;2023-11-18T12:22:14;1.90;;;0.60;;
78209;SDS011;67485;48.816;9.930;2023-11-18T12:24:44;1.37;;;0.50;;
78209;SDS011;67485;48.816;9.930;2023-11-18T12:27:12;1.42;;;0.50;;
78209;SDS011;67485;48.816;9.930;2023-11-18T12:29:42;1.40;;;0.50;;
78209;SDS011;67485;48.816;9.930;2023-11-18T12:32:11;2.45;;;1.00;;
78209;SDS011;67485;48.816;9.930;2023-11-18T12:40:16;5.13;;;0.60;;
78209;SDS011;67485;48.816;9.930;2023-11-18T12:43:09;1.63;;;0.60;;
78209;SDS011;67485;48.816;9.930;2023-11-18T12:48:19;1.80;;;0.70;;
78209;SDS011;67485;48.816;9.930;2023-11-18T12:50:55;2.30;;;0.83;;
78209;SDS011;67485;48.816;9.930;2023-11-18T12:53:21;2.38;;;0.93;;
78209;SDS011;67485;48.816;9.930;2023-11-18T12:55:53;3.58;;;1.00;;
78209;SDS011;67485;48.816;9.930;2023-11-18T12:58:19;3.67;;;1.20;;
78209;SDS011;67485;48.816;9.930;2023-11-18T13:00:47;3.70;;;1.40;;
78209;SDS011;67485;48.816;9.930;2023-11-18T13:03:13;3.55;;;0.93;;
78209;SDS011;67485;48.816;9.930;2023-11-18T13:05:41;3.28;;;1.10;;
78209;SDS011;67485;48.816;9.930;2023-11-18T13:08:08;3.63;;;0.80;;
78209;SDS011;67485;48.816;9.930;2023-11-18T13:10:35;2.20;;;1.00;;
78209;SDS011;67485;48.816;9.930;2023-11-18T13:13:02;3.28;;;1.08;;
78209;SDS011;67485;48.816;9.930;2023-11-18T13:15:30;2.30;;;1.00;;
78209;SDS011;67485;48.816;9.930;2023-11-18T13:17:56;2.70;;;1.30;;
78209;SDS011;67485;48.816;9.930;2023-11-18T13:20:25;2.15;;;1.10;;
78209;SDS011;67485;48.816;9.930;2023-11-18T13:22:52;9.00;;;2.78;;
78209;SDS011;67485;48.816;9.930;2023-11-18T13:25:21;5.93;;;2.28;;
78209;SDS011;67485;48.816;9.930;2023-11-18T13:27:48;5.27;;;1.70;;
78209;SDS011;67485;48.816;9.930;2023-11-18T13:30:15;4.05;;;1.90;;
78209;SDS011;67485;48.816;9.930;2023-11-18T13:32:42;3.80;;;1.67;;
78209;SDS011;67485;48.816;9.930;2023-11-18T13:35:09;3.63;;;1.65;;
78209;SDS011;67485;48.816;9.930;2023-11-18T13:37:36;3.35;;;1.70;;
78209;SDS011;67485;48.816;9.930;2023-11-18T13:40:05;6.53;;;1.70;;
78209;SDS011;67485;48.816;9.930;2023-11-18T13:42:32;3.58;;;2.05;;
78209;SDS011;67485;48.816;9.930;2023-11-18T13:44:59;5.10;;;2.00;;
78209;SDS011;67485;48.816;9.930;2023-11-18T13:47:32;4.05;;;1.73;;
78209;SDS011;67485;48.816;9.930;2023-11-18T13:49:57;3.27;;;1.67;;
78209;SDS011;67485;48.816;9.930;2023-11-18T13:52:26;5.22;;;2.10;;
78209;SDS011;67485;48.816;9.930;2023-11-18T13:54:52;5.10;;;2.23;;
78209;SDS011;67485;48.816;9.930;2023-11-18T13:57:22;4.28;;;2.30;;
78209;SDS011;67485;48.816;9.930;2023-11-18T13:59:49;6.78;;;2.70;;
78209;SDS011;67485;48.816;9.930;2023-11-18T14:02:15;5.47;;;2.45;;
78209;SDS011;67485;48.816;9.930;2023-11-18T14:04:42;6.05;;;2.90;;
78209;SDS011;67485;48.816;9.930;2023-11-18T14:07:15;5.17;;;2.07;;
78209;SDS011;67485;48.816;9.930;2023-11-18T14:09:45;4.90;;;2.50;;
78209;SDS011;67485;48.816;9.930;2023-11-18T14:12:11;4.80;;;2.63;;
78209;SDS011;67485;48.816;9.930;2023-11-18T14:14:38;5.57;;;2.67;;
78209;SDS011;67485;48.816;9.930;2023-11-18T14:17:05;5.05;;;2.67;;
78209;SDS011;67485;48.816;9.930;2023-11-18T14:19:35;5.47;;;2.83;;
78209;SDS011;67485;48.816;9.930;2023-11-18T14:22:02;5.45;;;2.90;;
78209;SDS011;67485;48.816;9.930;2023-11-18T14:24:34;7.78;;;3.60;;
78209;SDS011;67485;48.816;9.930;2023-11-18T14:27:00;6.20;;;2.95;;
78209;SDS011;67485;48.816;9.930;2023-11-18T14:29:26;7.32;;;3.10;;
78209;SDS011;67485;48.816;9.930;2023-11-18T14:31:53;6.03;;;3.00;;
78209;SDS011;67485;48.816;9.930;2023-11-18T14:34:22;7.35;;;3.05;;
78209;SDS011;67485;48.816;9.930;2023-11-18T14:36:49;5.25;;;2.38;;
78209;SDS011;67485;48.816;9.930;2023-11-18T14:39:15;4.60;;;2.50;;
78209;SDS011;67485;48.816;9.930;2023-11-18T14:41:43;5.37;;;2.20;;
78209;SDS011;67485;48.816;9.930;2023-11-18T14:44:10;7.38;;;2.15;;
78209;SDS011;67485;48.816;9.930;2023-11-18T14:46:36;6.93;;;2.70;;
78209;SDS011;67485;48.816;9.930;2023-11-18T14:51:51;3.85;;;1.92;;
78209;SDS011;67485;48.816;9.930;2023-11-18T14:54:17;4.40;;;1.97;;
78209;SDS011;67485;48.816;9.930;2023-11-18T14:56:43;3.92;;;1.95;;
78209;SDS011;67485;48.816;9.930;2023-11-18T14:59:12;6.60;;;2.67;;
78209;SDS011;67485;48.816;9.930;2023-11-18T15:01:38;6.68;;;3.10;;
78209;SDS011;67485;48.816;9.930;2023-11-18T15:07:02;5.50;;;2.50;;
78209;SDS011;67485;48.816;9.930;2023-11-18T15:09:28;5.50;;;2.45;;
78209;SDS011;67485;48.816;9.930;2023-11-18T15:11:57;6.65;;;2.75;;
78209;SDS011;67485;48.816;9.930;2023-11-18T15:14:23;3.90;;;2.00;;
78209;SDS011;67485;48.816;9.930;2023-11-18T15:16:52;5.13;;;2.00;;
78209;SDS011;67485;48.816;9.930;2023-11-18T15:19:18;5.18;;;2.40;;
78209;SDS011;67485;48.816;9.930;2023-11-18T15:21:47;3.88;;;1.58;;
78209;SDS011;67485;48.816;9.930;2023-11-18T15:24:18;3.38;;;1.67;;
78209;SDS011;67485;48.816;9.930;2023-11-18T15:26:44;5.90;;;1.75;;
78209;SDS011;67485;48.816;9.930;2023-11-18T15:29:10;3.17;;;1.83;;